sensor_id;sensor_type;location;lat;lon;timestamp;P1;durP1;ratioP1;P2;durP2;ratioP2
45198;SDS011;30941;46.422;18.772;2024-01-25T00:01:56;12.18;;;8.20;;
45198;SDS011;30941;46.422;18.772;2024-01-25T00:04:22;13.43;;;8.40;;
45198;SDS011;30941;46.422;18.772;2024-01-25T00:06:47;11.95;;;8.02;;
45198;SDS011;30941;46.422;18.772;2024-01-25T00:09:12;15.48;;;8.48;;
45198;SDS011;30941;46.422;18.772;2024-01-25T00:11:38;13.52;;;7.70;;
45198;SDS011;30941;46.422;18.772;2024-01-25T00:14:03;10.75;;;7.55;;
45198;SDS011;30941;46.422;18.772;2024-01-25T00:16:29;11.38;;;7.97;;
45198;SDS011;30941;46.422;18.772;2024-01-25T00:18:55;10.45;;;7.25;;
45198;SDS011;30941;46.422;18.772;2024-01-25T00:21:20;11.95;;;7.63;;
45198;SDS011;30941;46.422;18.772;2024-01-25T00:23:45;11.50;;;7.60;;
45198;SDS011;30941;46.422;18.772;2024-01-25T00:26:11;12.57;;;7.68;;
45198;SDS011;30941;46.422;18.772;2024-01-25T00:28:36;10.88;;;7.30;;
45198;SDS011;30941;46.422;18.772;2024-01-25T00:31:01;12.18;;;7.35;;
45198;SDS011;30941;46.422;18.772;2024-01-25T00:33:27;14.65;;;7.53;;
45198;SDS011;30941;46.422;18.772;2024-01-25T00:35:52;15.80;;;8.68;;
45198;SDS011;30941;46.422;18.772;2024-01-25T00:38:18;14.25;;;8.00;;
45198;SDS011;30941;46.422;18.772;2024-01-25T00:40:43;13.20;;;8.50;;
45198;SDS011;30941;46.422;18.772;2024-01-25T00:43:09;13.65;;;8.02;;
45198;SDS011;30941;46.422;18.772;2024-01-25T00:45:35;12.45;;;7.65;;
45198;SDS011;30941;46.422;18.772;2024-01-25T00:48:01;13.48;;;8.70;;
45198;SDS011;30941;46.422;18.772;2024-01-25T00:50:27;13.50;;;7.72;;
45198;SDS011;30941;46.422;18.772;2024-01-25T00:52:53;12.20;;;7.63;;
45198;SDS011;30941;46.422;18.772;2024-01-25T00:55:18;13.10;;;7.53;;
45198;SDS011;30941;46.422;18.772;2024-01-25T00:57:44;13.02;;;6.78;;
45198;SDS011;30941;46.422;18.772;2024-01-25T01:00:10;12.95;;;7.60;;
45198;SDS011;30941;46.422;18.772;2024-01-25T01:02:37;11.23;;;6.80;;
45198;SDS011;30941;46.422;18.772;2024-01-25T01:05:05;13.13;;;6.13;;
45198;SDS011;30941;46.422;18.772;2024-01-25T01:07:31;10.77;;;6.20;;
45198;SDS011;30941;46.422;18.772;2024-01-25T01:09:56;8.27;;;5.38;;
45198;SDS011;30941;46.422;18.772;2024-01-25T01:12:21;7.85;;;5.47;;
45198;SDS011;30941;46.422;18.772;2024-01-25T01:14:47;10.77;;;5.55;;
45198;SDS011;30941;46.422;18.772;2024-01-25T01:17:13;11.30;;;5.32;;
45198;SDS011;30941;46.422;18.772;2024-01-25T01:19:38;8.10;;;5.00;;
45198;SDS011;30941;46.422;18.772;2024-01-25T01:22:04;9.00;;;4.28;;
45198;SDS011;30941;46.422;18.772;2024-01-25T01:24:29;7.97;;;4.80;;
45198;SDS011;30941;46.422;18.772;2024-01-25T01:26:54;8.95;;;4.97;;
45198;SDS011;30941;46.422;18.772;2024-01-25T01:29:20;8.82;;;5.18;;
45198;SDS011;30941;46.422;18.772;2024-01-25T01:31:45;9.40;;;5.25;;
45198;SDS011;30941;46.422;18.772;2024-01-25T01:34:11;10.05;;;4.35;;
45198;SDS011;30941;46.422;18.772;2024-01-25T01:36:37;10.38;;;5.47;;
45198;SDS011;30941;46.422;18.772;2024-01-25T01:39:03;10.25;;;4.93;;
45198;SDS011;30941;46.422;18.772;2024-01-25T01:41:28;8.40;;;4.88;;
45198;SDS011;30941;46.422;18.772;2024-01-25T01:43:54;8.07;;;4.93;;
45198;SDS011;30941;46.422;18.772;2024-01-25T01:49:02;7.35;;;4.00;;
45198;SDS011;30941;46.422;18.772;2024-01-25T01:51:28;9.25;;;4.47;;
45198;SDS011;30941;46.422;18.772;2024-01-25T01:53:55;8.55;;;4.38;;
45198;SDS011;30941;46.422;18.772;2024-01-25T01:56:22;9.00;;;4.30;;
45198;SDS011;30941;46.422;18.772;2024-01-25T01:58:49;8.65;;;4.30;;
45198;SDS011;30941;46.422;18.772;2024-01-25T02:01:14;6.05;;;4.20;;
45198;SDS011;30941;46.422;18.772;2024-01-25T02:03:40;6.75;;;3.85;;
45198;SDS011;30941;46.422;18.772;2024-01-25T02:06:06;10.85;;;4.30;;
45198;SDS011;30941;46.422;18.772;2024-01-25T02:08:31;7.28;;;4.13;;
45198;SDS011;30941;46.422;18.772;2024-01-25T02:10:57;8.43;;;4.38;;
45198;SDS011;30941;46.422;18.772;2024-01-25T02:13:22;9.02;;;4.32;;
45198;SDS011;30941;46.422;18.772;2024-01-25T02:15:48;8.00;;;3.90;;
45198;SDS011;30941;46.422;18.772;2024-01-25T02:18:13;8.52;;;4.28;;
45198;SDS011;30941;46.422;18.772;2024-01-25T02:20:39;8.60;;;4.95;;
45198;SDS011;30941;46.422;18.772;2024-01-25T02:23:05;9.85;;;4.20;;
45198;SDS011;30941;46.422;18.772;2024-01-25T02:25:30;11.95;;;4.55;;
45198;SDS011;30941;46.422;18.772;2024-01-25T02:27:56;8.10;;;4.00;;
45198;SDS011;30941;46.422;18.772;2024-01-25T02:30:21;10.20;;;5.82;;
45198;SDS011;30941;46.422;18.772;2024-01-25T02:32:46;9.20;;;4.28;;
45198;SDS011;30941;46.422;18.772;2024-01-25T02:35:12;7.38;;;4.35;;
45198;SDS011;30941;46.422;18.772;2024-01-25T02:37:37;9.20;;;3.67;;
45198;SDS011;30941;46.422;18.772;2024-01-25T02:40:03;10.95;;;4.43;;
45198;SDS011;30941;46.422;18.772;2024-01-25T02:42:29;9.35;;;5.25;;
45198;SDS011;30941;46.422;18.772;2024-01-25T02:44:54;10.80;;;4.30;;
45198;SDS011;30941;46.422;18.772;2024-01-25T02:47:20;8.45;;;4.18;;
45198;SDS011;30941;46.422;18.772;2024-01-25T02:49:45;11.40;;;4.63;;
45198;SDS011;30941;46.422;18.772;2024-01-25T02:52:11;7.60;;;4.00;;
45198;SDS011;30941;46.422;18.772;2024-01-25T02:54:36;7.35;;;3.97;;
45198;SDS011;30941;46.422;18.772;2024-01-25T02:57:02;7.72;;;3.60;;
45198;SDS011;30941;46.422;18.772;2024-01-25T02:59:27;5.72;;;3.20;;
45198;SDS011;30941;46.422;18.772;2024-01-25T03:01:53;9.10;;;3.55;;
45198;SDS011;30941;46.422;18.772;2024-01-25T03:04:19;9.43;;;4.05;;
45198;SDS011;30941;46.422;18.772;2024-01-25T03:06:44;5.93;;;3.22;;
45198;SDS011;30941;46.422;18.772;2024-01-25T03:09:09;8.88;;;4.15;;
45198;SDS011;30941;46.422;18.772;2024-01-25T03:11:35;7.50;;;3.95;;
45198;SDS011;30941;46.422;18.772;2024-01-25T03:14:00;17.85;;;3.83;;
45198;SDS011;30941;46.422;18.772;2024-01-25T03:16:26;12.07;;;4.72;;
45198;SDS011;30941;46.422;18.772;2024-01-25T03:18:51;8.50;;;4.13;;
45198;SDS011;30941;46.422;18.772;2024-01-25T03:21:16;11.65;;;4.32;;
45198;SDS011;30941;46.422;18.772;2024-01-25T03:23:42;14.70;;;5.60;;
45198;SDS011;30941;46.422;18.772;2024-01-25T03:26:07;16.85;;;6.03;;
45198;SDS011;30941;46.422;18.772;2024-01-25T03:28:35;14.52;;;6.75;;
45198;SDS011;30941;46.422;18.772;2024-01-25T03:31:01;15.98;;;6.95;;
45198;SDS011;30941;46.422;18.772;2024-01-25T03:33:26;14.10;;;7.85;;
45198;SDS011;30941;46.422;18.772;2024-01-25T03:35:53;14.43;;;7.60;;
45198;SDS011;30941;46.422;18.772;2024-01-25T03:38:18;14.93;;;8.20;;
45198;SDS011;30941;46.422;18.772;2024-01-25T03:40:44;14.43;;;8.30;;
45198;SDS011;30941;46.422;18.772;2024-01-25T03:43:09;14.93;;;8.13;;
45198;SDS011;30941;46.422;18.772;2024-01-25T03:45:34;18.98;;;9.30;;
45198;SDS011;30941;46.422;18.772;2024-01-25T03:48:00;15.48;;;9.80;;
45198;SDS011;30941;46.422;18.772;2024-01-25T03:50:26;18.70;;;10.23;;
45198;SDS011;30941;46.422;18.772;2024-01-25T03:52:51;15.98;;;9.70;;
45198;SDS011;30941;46.422;18.772;2024-01-25T03:55:17;16.23;;;9.43;;
45198;SDS011;30941;46.422;18.772;2024-01-25T03:57:42;19.58;;;9.82;;
45198;SDS011;30941;46.422;18.772;2024-01-25T04:00:08;17.40;;;9.95;;
45198;SDS011;30941;46.422;18.772;2024-01-25T04:02:34;20.67;;;10.15;;
45198;SDS011;30941;46.422;18.772;2024-01-25T04:04:59;17.80;;;10.35;;
45198;SDS011;30941;46.422;18.772;2024-01-25T04:07:25;19.48;;;11.30;;
45198;SDS011;30941;46.422;18.772;2024-01-25T04:09:50;18.48;;;10.00;;
45198;SDS011;30941;46.422;18.772;2024-01-25T04:12:15;19.08;;;10.80;;
45198;SDS011;30941;46.422;18.772;2024-01-25T04:14:41;16.08;;;10.73;;
45198;SDS011;30941;46.422;18.772;2024-01-25T04:17:06;21.20;;;10.60;;
45198;SDS011;30941;46.422;18.772;2024-01-25T04:19:32;18.50;;;10.77;;
45198;SDS011;30941;46.422;18.772;2024-01-25T04:21:57;21.42;;;9.95;;
45198;SDS011;30941;46.422;18.772;2024-01-25T04:24:22;17.55;;;9.93;;
45198;SDS011;30941;46.422;18.772;2024-01-25T04:26:48;17.67;;;10.27;;
45198;SDS011;30941;46.422;18.772;2024-01-25T04:29:13;20.02;;;10.85;;
45198;SDS011;30941;46.422;18.772;2024-01-25T04:31:42;14.82;;;10.52;;
45198;SDS011;30941;46.422;18.772;2024-01-25T04:34:09;19.33;;;11.75;;
45198;SDS011;30941;46.422;18.772;2024-01-25T04:36:34;23.13;;;11.07;;
45198;SDS011;30941;46.422;18.772;2024-01-25T04:38:59;19.23;;;11.13;;
45198;SDS011;30941;46.422;18.772;2024-01-25T04:41:24;19.13;;;11.98;;
45198;SDS011;30941;46.422;18.772;2024-01-25T04:43:50;18.48;;;11.40;;
45198;SDS011;30941;46.422;18.772;2024-01-25T04:46:15;21.30;;;11.93;;
45198;SDS011;30941;46.422;18.772;2024-01-25T04:48:40;20.40;;;12.27;;
45198;SDS011;30941;46.422;18.772;2024-01-25T04:51:06;21.65;;;13.07;;
45198;SDS011;30941;46.422;18.772;2024-01-25T04:53:31;21.90;;;12.73;;
45198;SDS011;30941;46.422;18.772;2024-01-25T04:55:57;21.08;;;11.57;;
45198;SDS011;30941;46.422;18.772;2024-01-25T04:58:24;19.80;;;12.27;;
45198;SDS011;30941;46.422;18.772;2024-01-25T05:00:50;20.27;;;11.32;;
45198;SDS011;30941;46.422;18.772;2024-01-25T05:03:15;18.20;;;12.10;;
45198;SDS011;30941;46.422;18.772;2024-01-25T05:05:41;19.52;;;11.93;;
45198;SDS011;30941;46.422;18.772;2024-01-25T05:08:06;21.13;;;12.50;;
45198;SDS011;30941;46.422;18.772;2024-01-25T05:10:31;21.77;;;12.93;;
45198;SDS011;30941;46.422;18.772;2024-01-25T05:12:57;21.30;;;12.93;;
45198;SDS011;30941;46.422;18.772;2024-01-25T05:15:22;22.80;;;13.25;;
45198;SDS011;30941;46.422;18.772;2024-01-25T05:17:47;21.35;;;12.68;;
45198;SDS011;30941;46.422;18.772;2024-01-25T05:20:13;21.42;;;12.45;;
45198;SDS011;30941;46.422;18.772;2024-01-25T05:22:40;22.75;;;12.73;;
45198;SDS011;30941;46.422;18.772;2024-01-25T05:25:07;21.50;;;12.82;;
45198;SDS011;30941;46.422;18.772;2024-01-25T05:27:33;21.55;;;12.02;;
45198;SDS011;30941;46.422;18.772;2024-01-25T05:29:58;20.98;;;12.75;;
45198;SDS011;30941;46.422;18.772;2024-01-25T05:32:24;17.23;;;10.95;;
45198;SDS011;30941;46.422;18.772;2024-01-25T05:34:49;19.45;;;12.85;;
45198;SDS011;30941;46.422;18.772;2024-01-25T05:37:14;20.52;;;12.05;;
45198;SDS011;30941;46.422;18.772;2024-01-25T05:39:40;23.75;;;12.25;;
45198;SDS011;30941;46.422;18.772;2024-01-25T05:42:05;20.70;;;13.07;;
45198;SDS011;30941;46.422;18.772;2024-01-25T05:44:31;19.95;;;12.73;;
45198;SDS011;30941;46.422;18.772;2024-01-25T05:46:56;20.15;;;13.02;;
45198;SDS011;30941;46.422;18.772;2024-01-25T05:49:21;19.40;;;11.85;;
45198;SDS011;30941;46.422;18.772;2024-01-25T05:51:47;16.67;;;12.02;;
45198;SDS011;30941;46.422;18.772;2024-01-25T05:54:12;19.50;;;12.15;;
45198;SDS011;30941;46.422;18.772;2024-01-25T05:56:37;18.73;;;11.48;;
45198;SDS011;30941;46.422;18.772;2024-01-25T05:59:03;18.70;;;12.35;;
45198;SDS011;30941;46.422;18.772;2024-01-25T06:01:28;16.83;;;11.40;;
45198;SDS011;30941;46.422;18.772;2024-01-25T06:03:54;16.08;;;11.45;;
45198;SDS011;30941;46.422;18.772;2024-01-25T06:06:19;21.70;;;11.68;;
45198;SDS011;30941;46.422;18.772;2024-01-25T06:08:45;17.65;;;11.45;;
45198;SDS011;30941;46.422;18.772;2024-01-25T06:11:10;22.17;;;13.00;;
45198;SDS011;30941;46.422;18.772;2024-01-25T06:13:36;18.88;;;11.55;;
45198;SDS011;30941;46.422;18.772;2024-01-25T06:16:01;16.77;;;10.73;;
45198;SDS011;30941;46.422;18.772;2024-01-25T06:18:27;14.18;;;9.43;;
45198;SDS011;30941;46.422;18.772;2024-01-25T06:20:52;19.65;;;10.07;;
45198;SDS011;30941;46.422;18.772;2024-01-25T06:23:17;19.67;;;10.60;;
45198;SDS011;30941;46.422;18.772;2024-01-25T06:25:43;18.52;;;11.20;;
45198;SDS011;30941;46.422;18.772;2024-01-25T06:28:08;15.95;;;9.73;;
45198;SDS011;30941;46.422;18.772;2024-01-25T06:30:34;18.90;;;10.35;;
45198;SDS011;30941;46.422;18.772;2024-01-25T06:32:59;23.20;;;11.02;;
45198;SDS011;30941;46.422;18.772;2024-01-25T06:35:24;22.63;;;11.57;;
45198;SDS011;30941;46.422;18.772;2024-01-25T06:37:50;23.38;;;12.55;;
45198;SDS011;30941;46.422;18.772;2024-01-25T06:40:15;26.05;;;11.98;;
45198;SDS011;30941;46.422;18.772;2024-01-25T06:42:41;45.30;;;19.00;;
45198;SDS011;30941;46.422;18.772;2024-01-25T06:45:07;27.15;;;12.93;;
45198;SDS011;30941;46.422;18.772;2024-01-25T06:47:33;22.75;;;11.65;;
45198;SDS011;30941;46.422;18.772;2024-01-25T06:49:58;17.38;;;9.88;;
45198;SDS011;30941;46.422;18.772;2024-01-25T06:52:24;16.48;;;10.13;;
45198;SDS011;30941;46.422;18.772;2024-01-25T06:54:49;20.13;;;10.40;;
45198;SDS011;30941;46.422;18.772;2024-01-25T06:57:14;19.75;;;9.82;;
45198;SDS011;30941;46.422;18.772;2024-01-25T06:59:40;16.25;;;8.77;;
45198;SDS011;30941;46.422;18.772;2024-01-25T07:02:05;11.63;;;5.20;;
45198;SDS011;30941;46.422;18.772;2024-01-25T07:04:31;15.50;;;4.53;;
45198;SDS011;30941;46.422;18.772;2024-01-25T07:06:56;12.48;;;3.60;;
45198;SDS011;30941;46.422;18.772;2024-01-25T07:09:21;9.75;;;3.65;;
45198;SDS011;30941;46.422;18.772;2024-01-25T07:11:47;8.30;;;3.53;;
45198;SDS011;30941;46.422;18.772;2024-01-25T07:14:12;10.90;;;4.45;;
45198;SDS011;30941;46.422;18.772;2024-01-25T07:16:37;11.90;;;4.03;;
45198;SDS011;30941;46.422;18.772;2024-01-25T07:19:03;12.55;;;3.90;;
45198;SDS011;30941;46.422;18.772;2024-01-25T07:21:28;8.02;;;3.17;;
45198;SDS011;30941;46.422;18.772;2024-01-25T07:23:57;12.60;;;3.97;;
45198;SDS011;30941;46.422;18.772;2024-01-25T07:26:24;16.35;;;4.95;;
45198;SDS011;30941;46.422;18.772;2024-01-25T07:28:49;12.18;;;4.25;;
45198;SDS011;30941;46.422;18.772;2024-01-25T07:31:14;10.50;;;3.88;;
45198;SDS011;30941;46.422;18.772;2024-01-25T07:33:40;17.02;;;4.50;;
45198;SDS011;30941;46.422;18.772;2024-01-25T07:36:05;15.18;;;4.72;;
45198;SDS011;30941;46.422;18.772;2024-01-25T07:38:31;12.65;;;4.00;;
45198;SDS011;30941;46.422;18.772;2024-01-25T07:40:56;12.32;;;3.88;;
45198;SDS011;30941;46.422;18.772;2024-01-25T07:43:21;10.95;;;3.88;;
45198;SDS011;30941;46.422;18.772;2024-01-25T07:45:47;10.10;;;3.78;;
45198;SDS011;30941;46.422;18.772;2024-01-25T07:48:12;8.63;;;3.08;;
45198;SDS011;30941;46.422;18.772;2024-01-25T07:50:38;18.17;;;4.00;;
45198;SDS011;30941;46.422;18.772;2024-01-25T07:53:03;14.25;;;3.60;;
45198;SDS011;30941;46.422;18.772;2024-01-25T07:55:28;11.68;;;3.55;;
45198;SDS011;30941;46.422;18.772;2024-01-25T07:57:54;10.68;;;3.33;;
45198;SDS011;30941;46.422;18.772;2024-01-25T08:00:20;8.77;;;3.05;;
45198;SDS011;30941;46.422;18.772;2024-01-25T08:02:45;8.57;;;3.03;;
45198;SDS011;30941;46.422;18.772;2024-01-25T08:05:11;13.57;;;2.95;;
45198;SDS011;30941;46.422;18.772;2024-01-25T08:07:36;12.40;;;3.33;;
45198;SDS011;30941;46.422;18.772;2024-01-25T08:10:02;12.57;;;3.95;;
45198;SDS011;30941;46.422;18.772;2024-01-25T08:12:29;10.93;;;3.75;;
45198;SDS011;30941;46.422;18.772;2024-01-25T08:14:55;13.95;;;3.08;;
45198;SDS011;30941;46.422;18.772;2024-01-25T08:17:20;13.10;;;3.22;;
45198;SDS011;30941;46.422;18.772;2024-01-25T08:19:46;12.85;;;3.58;;
45198;SDS011;30941;46.422;18.772;2024-01-25T08:22:11;13.05;;;3.70;;
45198;SDS011;30941;46.422;18.772;2024-01-25T08:24:38;10.07;;;3.75;;
45198;SDS011;30941;46.422;18.772;2024-01-25T08:27:04;12.52;;;3.35;;
45198;SDS011;30941;46.422;18.772;2024-01-25T08:29:29;13.73;;;4.05;;
45198;SDS011;30941;46.422;18.772;2024-01-25T08:31:55;13.05;;;3.78;;
45198;SDS011;30941;46.422;18.772;2024-01-25T08:34:20;9.63;;;3.55;;
45198;SDS011;30941;46.422;18.772;2024-01-25T08:36:49;10.73;;;3.30;;
45198;SDS011;30941;46.422;18.772;2024-01-25T08:39:14;8.35;;;3.20;;
45198;SDS011;30941;46.422;18.772;2024-01-25T08:41:41;11.95;;;3.88;;
45198;SDS011;30941;46.422;18.772;2024-01-25T08:44:07;14.05;;;5.40;;
45198;SDS011;30941;46.422;18.772;2024-01-25T08:46:32;11.43;;;4.78;;
45198;SDS011;30941;46.422;18.772;2024-01-25T08:48:58;9.60;;;4.00;;
45198;SDS011;30941;46.422;18.772;2024-01-25T08:51:23;14.00;;;4.57;;
45198;SDS011;30941;46.422;18.772;2024-01-25T08:53:49;17.33;;;4.38;;
45198;SDS011;30941;46.422;18.772;2024-01-25T08:56:16;10.90;;;4.15;;
45198;SDS011;30941;46.422;18.772;2024-01-25T08:58:41;13.52;;;4.22;;
45198;SDS011;30941;46.422;18.772;2024-01-25T09:01:07;12.40;;;4.47;;
45198;SDS011;30941;46.422;18.772;2024-01-25T09:03:32;14.85;;;4.35;;
45198;SDS011;30941;46.422;18.772;2024-01-25T09:05:58;14.75;;;5.50;;
45198;SDS011;30941;46.422;18.772;2024-01-25T09:08:23;11.82;;;4.85;;
45198;SDS011;30941;46.422;18.772;2024-01-25T09:10:49;12.63;;;4.63;;
45198;SDS011;30941;46.422;18.772;2024-01-25T09:13:14;13.82;;;5.28;;
45198;SDS011;30941;46.422;18.772;2024-01-25T09:15:40;12.57;;;4.45;;
45198;SDS011;30941;46.422;18.772;2024-01-25T09:18:05;9.32;;;3.92;;
45198;SDS011;30941;46.422;18.772;2024-01-25T09:20:31;12.23;;;3.85;;
45198;SDS011;30941;46.422;18.772;2024-01-25T09:22:56;11.65;;;3.78;;
45198;SDS011;30941;46.422;18.772;2024-01-25T09:25:22;8.90;;;3.22;;
45198;SDS011;30941;46.422;18.772;2024-01-25T09:27:48;9.23;;;3.38;;
45198;SDS011;30941;46.422;18.772;2024-01-25T09:30:13;9.80;;;3.92;;
45198;SDS011;30941;46.422;18.772;2024-01-25T09:32:39;12.93;;;4.13;;
45198;SDS011;30941;46.422;18.772;2024-01-25T09:35:05;12.10;;;4.03;;
45198;SDS011;30941;46.422;18.772;2024-01-25T09:37:30;12.50;;;4.93;;
45198;SDS011;30941;46.422;18.772;2024-01-25T09:39:56;12.32;;;4.18;;
45198;SDS011;30941;46.422;18.772;2024-01-25T09:42:23;10.63;;;4.13;;
45198;SDS011;30941;46.422;18.772;2024-01-25T09:44:49;15.13;;;5.15;;
45198;SDS011;30941;46.422;18.772;2024-01-25T09:47:16;12.25;;;4.10;;
45198;SDS011;30941;46.422;18.772;2024-01-25T09:49:41;9.30;;;4.07;;
45198;SDS011;30941;46.422;18.772;2024-01-25T09:52:07;11.10;;;4.35;;
45198;SDS011;30941;46.422;18.772;2024-01-25T09:54:38;8.35;;;4.50;;
45198;SDS011;30941;46.422;18.772;2024-01-25T09:57:06;16.23;;;5.70;;
45198;SDS011;30941;46.422;18.772;2024-01-25T09:59:35;9.93;;;3.95;;
45198;SDS011;30941;46.422;18.772;2024-01-25T10:02:01;10.45;;;4.63;;
45198;SDS011;30941;46.422;18.772;2024-01-25T10:04:26;10.07;;;4.60;;
45198;SDS011;30941;46.422;18.772;2024-01-25T10:06:55;17.60;;;5.60;;
45198;SDS011;30941;46.422;18.772;2024-01-25T10:09:21;10.77;;;3.65;;
45198;SDS011;30941;46.422;18.772;2024-01-25T10:11:47;11.23;;;3.42;;
45198;SDS011;30941;46.422;18.772;2024-01-25T10:14:13;10.90;;;4.35;;
45198;SDS011;30941;46.422;18.772;2024-01-25T10:16:38;15.15;;;4.20;;
45198;SDS011;30941;46.422;18.772;2024-01-25T10:19:06;9.02;;;3.38;;
45198;SDS011;30941;46.422;18.772;2024-01-25T10:21:32;10.30;;;3.70;;
45198;SDS011;30941;46.422;18.772;2024-01-25T10:23:57;9.48;;;3.60;;
45198;SDS011;30941;46.422;18.772;2024-01-25T10:26:25;13.32;;;3.90;;
45198;SDS011;30941;46.422;18.772;2024-01-25T10:28:52;15.60;;;3.97;;
45198;SDS011;30941;46.422;18.772;2024-01-25T10:31:17;9.50;;;3.08;;
45198;SDS011;30941;46.422;18.772;2024-01-25T10:33:43;11.02;;;3.13;;
45198;SDS011;30941;46.422;18.772;2024-01-25T10:36:10;8.65;;;2.83;;
45198;SDS011;30941;46.422;18.772;2024-01-25T10:38:36;11.77;;;3.30;;
45198;SDS011;30941;46.422;18.772;2024-01-25T10:41:03;7.85;;;3.15;;
45198;SDS011;30941;46.422;18.772;2024-01-25T10:43:29;9.98;;;3.20;;
45198;SDS011;30941;46.422;18.772;2024-01-25T10:45:57;11.88;;;3.58;;
45198;SDS011;30941;46.422;18.772;2024-01-25T10:48:26;8.70;;;3.20;;
45198;SDS011;30941;46.422;18.772;2024-01-25T10:50:53;8.57;;;3.40;;
45198;SDS011;30941;46.422;18.772;2024-01-25T10:53:19;13.68;;;3.60;;
45198;SDS011;30941;46.422;18.772;2024-01-25T10:55:45;7.05;;;2.75;;
45198;SDS011;30941;46.422;18.772;2024-01-25T10:58:12;8.85;;;3.05;;
45198;SDS011;30941;46.422;18.772;2024-01-25T11:00:38;12.88;;;3.22;;
45198;SDS011;30941;46.422;18.772;2024-01-25T11:03:04;12.15;;;3.45;;
45198;SDS011;30941;46.422;18.772;2024-01-25T11:05:31;12.38;;;3.25;;
45198;SDS011;30941;46.422;18.772;2024-01-25T11:07:56;15.07;;;3.38;;
45198;SDS011;30941;46.422;18.772;2024-01-25T11:10:24;13.68;;;3.47;;
45198;SDS011;30941;46.422;18.772;2024-01-25T11:12:56;9.27;;;3.15;;
45198;SDS011;30941;46.422;18.772;2024-01-25T11:15:35;9.52;;;3.47;;
45198;SDS011;30941;46.422;18.772;2024-01-25T11:18:02;13.80;;;2.95;;
45198;SDS011;30941;46.422;18.772;2024-01-25T11:20:29;10.80;;;3.13;;
45198;SDS011;30941;46.422;18.772;2024-01-25T11:22:58;12.00;;;3.00;;
45198;SDS011;30941;46.422;18.772;2024-01-25T11:25:27;11.95;;;3.38;;
45198;SDS011;30941;46.422;18.772;2024-01-25T11:27:54;16.23;;;4.53;;
45198;SDS011;30941;46.422;18.772;2024-01-25T11:30:20;11.00;;;3.05;;
45198;SDS011;30941;46.422;18.772;2024-01-25T11:32:48;10.52;;;3.30;;
45198;SDS011;30941;46.422;18.772;2024-01-25T11:35:14;13.15;;;3.67;;
45198;SDS011;30941;46.422;18.772;2024-01-25T11:37:46;10.18;;;2.47;;
45198;SDS011;30941;46.422;18.772;2024-01-25T11:40:12;11.05;;;3.13;;
45198;SDS011;30941;46.422;18.772;2024-01-25T11:42:39;12.20;;;3.85;;
45198;SDS011;30941;46.422;18.772;2024-01-25T11:45:09;11.45;;;3.95;;
45198;SDS011;30941;46.422;18.772;2024-01-25T11:47:35;12.57;;;4.60;;
45198;SDS011;30941;46.422;18.772;2024-01-25T11:50:01;13.93;;;3.78;;
45198;SDS011;30941;46.422;18.772;2024-01-25T11:52:27;11.82;;;3.88;;
45198;SDS011;30941;46.422;18.772;2024-01-25T11:54:52;14.13;;;3.60;;
45198;SDS011;30941;46.422;18.772;2024-01-25T11:57:18;10.82;;;2.85;;
45198;SDS011;30941;46.422;18.772;2024-01-25T11:59:44;17.20;;;3.75;;
45198;SDS011;30941;46.422;18.772;2024-01-25T12:02:11;14.65;;;3.67;;
45198;SDS011;30941;46.422;18.772;2024-01-25T12:04:37;8.98;;;2.95;;
45198;SDS011;30941;46.422;18.772;2024-01-25T12:07:03;12.88;;;3.05;;
45198;SDS011;30941;46.422;18.772;2024-01-25T12:09:28;11.25;;;3.22;;
45198;SDS011;30941;46.422;18.772;2024-01-25T12:11:54;9.95;;;3.00;;
45198;SDS011;30941;46.422;18.772;2024-01-25T12:14:20;9.75;;;2.47;;
45198;SDS011;30941;46.422;18.772;2024-01-25T12:16:45;10.90;;;3.33;;
45198;SDS011;30941;46.422;18.772;2024-01-25T12:19:10;7.60;;;2.83;;
45198;SDS011;30941;46.422;18.772;2024-01-25T12:21:36;11.18;;;3.38;;
45198;SDS011;30941;46.422;18.772;2024-01-25T12:24:01;10.38;;;3.28;;
45198;SDS011;30941;46.422;18.772;2024-01-25T12:26:33;10.45;;;3.22;;
45198;SDS011;30941;46.422;18.772;2024-01-25T12:29:00;9.13;;;3.13;;
45198;SDS011;30941;46.422;18.772;2024-01-25T12:31:25;8.77;;;3.17;;
45198;SDS011;30941;46.422;18.772;2024-01-25T12:33:51;13.80;;;2.90;;
45198;SDS011;30941;46.422;18.772;2024-01-25T12:36:16;7.32;;;2.85;;
45198;SDS011;30941;46.422;18.772;2024-01-25T12:38:41;9.88;;;3.28;;
45198;SDS011;30941;46.422;18.772;2024-01-25T12:41:07;14.38;;;5.22;;
45198;SDS011;30941;46.422;18.772;2024-01-25T12:43:32;9.38;;;2.80;;
45198;SDS011;30941;46.422;18.772;2024-01-25T12:45:57;12.07;;;3.65;;
45198;SDS011;30941;46.422;18.772;2024-01-25T12:48:23;10.15;;;3.30;;
45198;SDS011;30941;46.422;18.772;2024-01-25T12:50:48;11.32;;;3.63;;
45198;SDS011;30941;46.422;18.772;2024-01-25T12:53:14;10.57;;;3.22;;
45198;SDS011;30941;46.422;18.772;2024-01-25T12:55:39;8.73;;;3.35;;
45198;SDS011;30941;46.422;18.772;2024-01-25T12:58:05;8.27;;;3.95;;
45198;SDS011;30941;46.422;18.772;2024-01-25T13:00:30;10.07;;;3.88;;
45198;SDS011;30941;46.422;18.772;2024-01-25T13:02:56;13.30;;;3.38;;
45198;SDS011;30941;46.422;18.772;2024-01-25T13:05:22;10.73;;;3.53;;
45198;SDS011;30941;46.422;18.772;2024-01-25T13:07:47;8.65;;;3.55;;
45198;SDS011;30941;46.422;18.772;2024-01-25T13:10:13;8.80;;;3.33;;
45198;SDS011;30941;46.422;18.772;2024-01-25T13:12:38;10.52;;;3.50;;
45198;SDS011;30941;46.422;18.772;2024-01-25T13:15:04;12.23;;;3.05;;
45198;SDS011;30941;46.422;18.772;2024-01-25T13:17:30;13.68;;;4.13;;
45198;SDS011;30941;46.422;18.772;2024-01-25T13:19:57;10.05;;;2.70;;
45198;SDS011;30941;46.422;18.772;2024-01-25T13:22:22;13.30;;;3.17;;
45198;SDS011;30941;46.422;18.772;2024-01-25T13:24:49;12.40;;;3.35;;
45198;SDS011;30941;46.422;18.772;2024-01-25T13:27:15;13.05;;;3.28;;
45198;SDS011;30941;46.422;18.772;2024-01-25T13:29:40;11.15;;;2.97;;
45198;SDS011;30941;46.422;18.772;2024-01-25T13:32:05;8.98;;;3.10;;
45198;SDS011;30941;46.422;18.772;2024-01-25T13:34:31;12.07;;;2.67;;
45198;SDS011;30941;46.422;18.772;2024-01-25T13:36:56;12.00;;;3.45;;
45198;SDS011;30941;46.422;18.772;2024-01-25T13:39:21;10.68;;;3.42;;
45198;SDS011;30941;46.422;18.772;2024-01-25T13:41:47;14.18;;;3.30;;
45198;SDS011;30941;46.422;18.772;2024-01-25T13:44:14;14.35;;;3.25;;
45198;SDS011;30941;46.422;18.772;2024-01-25T13:46:39;12.05;;;3.00;;
45198;SDS011;30941;46.422;18.772;2024-01-25T13:49:04;12.77;;;2.67;;
45198;SDS011;30941;46.422;18.772;2024-01-25T13:51:30;11.55;;;3.55;;
45198;SDS011;30941;46.422;18.772;2024-01-25T13:53:55;10.77;;;2.72;;
45198;SDS011;30941;46.422;18.772;2024-01-25T13:56:20;10.95;;;3.75;;
45198;SDS011;30941;46.422;18.772;2024-01-25T13:58:46;8.52;;;2.67;;
45198;SDS011;30941;46.422;18.772;2024-01-25T14:01:11;12.35;;;3.20;;
45198;SDS011;30941;46.422;18.772;2024-01-25T14:03:36;11.52;;;3.10;;
45198;SDS011;30941;46.422;18.772;2024-01-25T14:06:02;12.30;;;4.13;;
45198;SDS011;30941;46.422;18.772;2024-01-25T14:08:29;14.18;;;3.35;;
45198;SDS011;30941;46.422;18.772;2024-01-25T14:10:56;12.48;;;3.20;;
45198;SDS011;30941;46.422;18.772;2024-01-25T14:13:21;10.13;;;3.58;;
45198;SDS011;30941;46.422;18.772;2024-01-25T14:15:46;15.15;;;3.88;;